Time;durP1;ratioP1;P1;durP2;ratioP2;P2;SDS_P1;SDS_P2;PMS_P1;PMS_P2;Temp;Humidity;BMP_temperature;BMP_pressure;BME280_temperature;BME280_humidity;BME280_pressure;Samples;Min_cycle;Max_cycle;Signal;HPM_P1;HPM_P2
2023/08/30 00:01:13;;;;;;;10.20;9.13;;;;;;;10.63;100.00;100827.00;5054233;28;20035;-67
2023/08/30 00:03:38;;;;;;;12.60;11.40;;;;;;;10.49;100.00;100826.28;5063973;28;20024;-67
2023/08/30 00:06:04;;;;;;;11.20;10.07;;;;;;;10.46;100.00;100815.81;5067750;28;20028;-66
2023/08/30 00:08:31;;;;;;;12.05;9.80;;;;;;;10.45;100.00;100820.19;5082462;28;20464;-67
2023/08/30 00:10:58;;;;;;;10.40;9.40;;;;;;;10.50;100.00;100817.53;5084338;28;20173;-66
2023/08/30 00:13:29;;;;;;;12.23;10.30;;;;;;;10.56;100.00;100812.22;5067548;28;20032;-66
2023/08/30 00:15:55;;;;;;;;;;;;;;;10.67;100.00;100820.78;5067887;28;20032;-66
2023/08/30 00:18:21;;;;;;;12.07;10.77;;;;;;;10.50;100.00;100817.53;5065925;28;20292;-66
2023/08/30 00:20:47;;;;;;;12.93;10.57;;;;;;;10.49;100.00;100811.44;5065633;28;20032;-66
2023/08/30 00:23:16;;;;;;;12.50;10.57;;;;;;;10.43;100.00;100811.50;5050163;28;20029;-66
2023/08/30 00:25:44;;;;;;;11.98;10.77;;;;;;;10.44;100.00;100810.59;5068595;28;20118;-66
2023/08/30 00:28:09;;;;;;;11.77;10.55;;;;;;;10.45;100.00;100806.25;5069521;28;20023;-66
2023/08/30 00:30:35;;;;;;;13.88;10.38;;;;;;;10.27;100.00;100802.94;5065566;28;20031;-66
2023/08/30 00:33:00;;;;;;;10.60;9.45;;;;;;;10.25;100.00;100807.28;5049999;28;20611;-66
2023/08/30 00:35:26;;;;;;;12.77;11.48;;;;;;;10.22;100.00;100804.72;5049764;28;20059;-66
2023/08/30 00:37:51;;;;;;;12.27;10.88;;;;;;;10.16;100.00;100802.19;5067435;28;20024;-67
2023/08/30 00:40:17;;;;;;;12.23;10.93;;;;;;;10.22;100.00;100796.84;5049397;28;20032;-67
2023/08/30 00:42:42;;;;;;;10.82;9.82;;;;;;;10.20;100.00;100796.88;5070067;28;20077;-67
2023/08/30 00:45:08;;;;;;;10.23;9.23;;;;;;;10.17;100.00;100802.16;5065993;28;20039;-66
2023/08/30 00:47:35;;;;;;;11.48;10.38;;;;;;;10.10;100.00;100790.00;5052893;28;20032;-66
2023/08/30 00:50:01;;;;;;;10.50;9.20;;;;;;;10.01;100.00;100788.34;5054754;28;20143;-66
2023/08/30 00:52:26;;;;;;;10.15;9.15;;;;;;;9.99;100.00;100786.63;5064785;28;20054;-66
2023/08/30 00:54:54;;;;;;;11.38;10.27;;;;;;;9.96;100.00;100784.91;5073272;28;20032;-66
2023/08/30 00:57:19;;;;;;;12.35;10.23;;;;;;;9.97;100.00;100783.16;5052465;28;20065;-67
2023/08/30 00:59:45;;;;;;;11.95;10.73;;;;;;;9.95;100.00;100783.16;5036379;28;20033;-66
2023/08/30 01:02:12;;;;;;;11.60;10.40;;;;;;;9.87;100.00;100779.78;5084348;28;20032;-67
2023/08/30 01:04:37;;;;;;;11.65;10.43;;;;;;;9.88;100.00;100785.00;5048447;28;20126;-66
2023/08/30 01:07:03;;;;;;;12.02;10.82;;;;;;;9.89;100.00;100780.63;5048344;28;20530;-66
2023/08/30 01:09:28;;;;;;;13.10;11.25;;;;;;;9.96;100.00;100779.66;5068605;28;20169;-66
2023/08/30 01:12:35;;;;;;;12.02;10.82;;;;;;;9.95;100.00;100783.16;5073268;28;20024;-66
2023/08/30 01:15:06;;;;;;;13.82;11.75;;;;;;;9.93;100.00;100776.19;5027107;28;20517;-66
2023/08/30 01:17:33;;;;;;;14.45;13.00;;;;;;;10.06;100.00;100780.44;5033206;28;20027;-66
2023/08/30 01:20:14;;;;;;;13.00;11.70;;;;;;;10.02;100.00;100782.22;5052885;28;20483;-66
2023/08/30 01:22:45;;;;;;;12.50;11.25;;;;;;;10.06;100.00;100785.69;5088371;28;20028;-66
2023/08/30 01:25:14;;;;;;;13.45;12.20;;;;;;;10.01;100.00;100771.75;5063545;28;20043;-66
2023/08/30 01:27:40;;;;;;;12.43;11.13;;;;;;;9.94;100.00;100772.72;5084502;28;20024;-66
2023/08/30 01:30:08;;;;;;;12.80;11.48;;;;;;;9.98;100.00;100769.19;5063612;28;20039;-67
2023/08/30 01:32:35;;;;;;;14.35;12.85;;;;;;;10.08;100.00;100767.34;5063616;28;20020;-66
2023/08/30 01:35:02;;;;;;;13.98;12.23;;;;;;;10.02;100.00;100773.50;5084735;28;20773;-66
2023/08/30 01:37:27;;;;;;;13.68;12.38;;;;;;;10.16;100.00;100770.75;5044475;28;20024;-66
2023/08/30 01:39:56;;;;;;;14.52;13.00;;;;;;;10.14;100.00;100768.16;5037941;28;20089;-66
2023/08/30 01:42:26;;;;;;;13.25;11.52;;;;;;;10.09;100.00;100767.31;5046110;28;20059;-66
2023/08/30 01:44:57;;;;;;;13.93;12.63;;;;;;;10.00;100.00;100775.28;5061477;28;20115;-66
2023/08/30 01:47:25;;;;;;;13.00;11.70;;;;;;;10.04;100.00;100770.00;5062903;28;20036;-66
2023/08/30 01:49:52;;;;;;;14.00;12.52;;;;;;;10.03;100.00;100773.50;5067594;28;20468;-66
2023/08/30 01:52:18;;;;;;;14.23;12.80;;;;;;;10.10;100.00;100770.78;5053240;28;20043;-66
2023/08/30 01:54:46;;;;;;;13.55;12.25;;;;;;;10.04;100.00;100759.53;5064857;28;20032;-66
2023/08/30 01:57:12;;;;;;;13.85;12.05;;;;;;;9.98;100.00;100762.19;5053682;28;20032;-66
2023/08/30 01:59:37;;;;;;;13.82;12.50;;;;;;;10.03;100.00;100764.78;5050579;28;20441;-66
2023/08/30 02:02:04;;;;;;;13.27;11.93;;;;;;;9.95;100.00;100764.84;5036186;28;20031;-66
2023/08/30 02:04:31;;;;;;;13.50;12.20;;;;;;;9.77;100.00;100762.41;5063820;28;20052;-66
2023/08/30 02:07:02;;;;;;;13.23;11.95;;;;;;;9.59;100.00;100769.53;5067703;28;20074;-66
2023/08/30 02:09:42;;;;;;;12.93;11.57;;;;;;;9.57;100.00;100767.81;5065473;28;20043;-66
2023/08/30 02:12:13;;;;;;;13.57;12.18;;;;;;;9.67;100.00;100770.34;5064611;28;20394;-66
2023/08/30 02:14:41;;;;;;;13.75;12.45;;;;;;;9.56;100.00;100764.34;5062652;28;20380;-66
2023/08/30 02:17:11;;;;;;;14.60;13.10;;;;;;;9.63;100.00;100755.56;5060553;28;20032;-66
2023/08/30 02:19:36;;;;;;;14.27;12.88;;;;;;;9.70;100.00;100757.25;5053785;28;20052;-66
2023/08/30 02:22:03;;;;;;;14.93;13.35;;;;;;;9.68;100.00;100759.03;5045709;28;21120;-66
2023/08/30 02:24:28;;;;;;;15.18;13.63;;;;;;;9.61;100.00;100754.72;5045543;28;20035;-66
2023/08/30 02:26:56;;;;;;;15.20;13.65;;;;;;;9.56;100.00;100753.03;5060758;28;20020;-66
2023/08/30 02:29:21;;;;;;;14.65;13.15;;;;;;;9.52;100.00;100745.22;5067451;28;20119;-66
2023/08/30 02:31:47;;;;;;;14.30;12.90;;;;;;;9.49;100.00;100749.59;5063355;28;20536;-66
2023/08/30 02:34:12;;;;;;;13.75;12.38;;;;;;;9.38;100.00;100743.56;5036504;28;20054;-66
2023/08/30 02:36:37;;;;;;;14.13;12.82;;;;;;;9.37;100.00;100747.94;5046166;28;20475;-66
2023/08/30 02:39:03;;;;;;;14.60;12.95;;;;;;;9.35;100.00;100745.34;5051490;28;20032;-66
2023/08/30 02:41:29;;;;;;;14.10;12.77;;;;;;;9.25;100.00;100743.69;5051505;28;21715;-66
2023/08/30 02:43:54;;;;;;;17.40;14.75;;;;;;;9.34;100.00;100738.38;5062891;28;20471;-66
2023/08/30 02:46:19;;;;;;;15.77;14.25;;;;;;;9.39;100.00;100740.09;5064028;28;20028;-66
2023/08/30 02:48:45;;;;;;;17.10;15.30;;;;;;;9.42;100.00;100734.81;5044757;28;20033;-66
2023/08/30 02:51:10;;;;;;;17.70;15.55;;;;;;;9.51;100.00;100734.72;5046046;28;20039;-66
2023/08/30 02:53:38;;;;;;;17.08;15.30;;;;;;;9.50;100.00;100733.03;5050012;28;20043;-67
2023/08/30 02:56:03;;;;;;;19.27;15.88;;;;;;;9.70;100.00;100731.06;5078436;28;20325;-66
2023/08/30 02:58:29;;;;;;;16.67;14.90;;;;;;;9.54;100.00;100722.50;5079052;28;20038;-65
2023/08/30 03:00:54;;;;;;;16.75;15.05;;;;;;;9.65;100.00;100722.38;5052855;28;20032;-66
2023/08/30 03:03:20;;;;;;;16.58;14.85;;;;;;;9.63;100.00;100708.47;5065278;28;20028;-66
2023/08/30 03:05:45;;;;;;;16.77;14.90;;;;;;;9.64;100.00;100715.44;5067234;28;20028;-66
2023/08/30 03:08:10;;;;;;;18.23;16.40;;;;;;;9.75;100.00;100714.47;5047476;28;20039;-66
2023/08/30 03:10:36;;;;;;;21.10;16.45;;;;;;;9.84;100.00;100706.50;5044799;28;21289;-66
2023/08/30 03:13:01;;;;;;;19.48;17.45;;;;;;;9.91;100.00;100713.41;5062691;28;20455;-66
2023/08/30 03:15:27;;;;;;;19.35;17.35;;;;;;;10.02;100.00;100711.53;5042276;28;20090;-66
2023/08/30 03:17:52;;;;;;;19.73;17.73;;;;;;;10.11;100.00;100707.94;5064419;28;20055;-66
2023/08/30 03:20:18;;;;;;;18.75;16.75;;;;;;;10.21;100.00;100713.94;5044302;28;20121;-66
2023/08/30 03:22:44;;;;;;;19.20;17.10;;;;;;;10.24;100.00;100711.28;5050753;28;20070;-66
2023/08/30 03:25:10;;;;;;;17.83;15.93;;;;;;;10.29;100.00;100704.25;5050567;28;20082;-66
2023/08/30 03:27:36;;;;;;;18.17;16.35;;;;;;;10.36;100.00;100712.94;5062189;28;20089;-66
2023/08/30 03:30:03;;;;;;;16.98;15.18;;;;;;;10.46;100.00;100714.53;5060061;28;20093;-66
2023/08/30 03:32:30;;;;;;;17.80;15.98;;;;;;;10.46;100.00;100706.69;5067852;28;20028;-66
2023/08/30 03:34:55;;;;;;;17.35;15.50;;;;;;;10.51;100.00;100699.59;5061924;28;20078;-66
2023/08/30 03:37:21;;;;;;;16.98;15.30;;;;;;;10.59;100.00;100702.13;5044543;28;20032;-66
2023/08/30 03:39:47;;;;;;;17.20;15.50;;;;;;;10.57;100.00;100689.06;5050247;28;20070;-66
2023/08/30 03:42:13;;;;;;;17.27;15.57;;;;;;;10.67;100.00;100679.28;5061128;28;20034;-66
2023/08/30 03:44:41;;;;;;;17.98;14.95;;;;;;;10.65;100.00;100678.44;5062360;28;20020;-66
2023/08/30 03:47:09;;;;;;;16.73;15.02;;;;;;;10.63;100.00;100669.75;5051729;28;20147;-66
2023/08/30 03:49:35;;;;;;;19.15;14.60;;;;;;;10.69;100.00;100668.81;5051880;28;20042;-66
2023/08/30 03:52:00;;;;;;;17.90;16.10;;;;;;;10.72;100.00;100664.38;5061158;28;20065;-66
2023/08/30 03:54:26;;;;;;;16.77;15.18;;;;;;;10.71;100.00;100660.00;5051805;28;20050;-67
2023/08/30 03:56:51;;;;;;;17.77;15.98;;;;;;;10.75;100.00;100653.84;5051098;28;20117;-66
2023/08/30 03:59:17;;;;;;;18.65;16.75;;;;;;;10.75;100.00;100652.97;5050274;28;20107;-66
2023/08/30 04:01:42;;;;;;;18.33;16.42;;;;;;;10.72;100.00;100645.16;5067924;28;20032;-66
2023/08/30 04:04:07;;;;;;;17.55;15.85;;;;;;;10.67;100.00;100636.50;5060733;28;20028;-66
2023/08/30 04:06:33;;;;;;;18.75;16.80;;;;;;;10.67;100.00;100639.97;5062826;28;20039;-66
2023/08/30 04:08:58;;;;;;;20.05;17.95;;;;;;;10.55;100.00;100632.31;5045627;28;20020;-66
2023/08/30 04:11:24;;;;;;;19.45;17.02;;;;;;;10.63;100.00;100635.69;5045607;28;20054;-66
2023/08/30 04:13:49;;;;;;;19.40;17.42;;;;;;;10.62;100.00;100630.47;5059903;28;20032;-66
2023/08/30 04:16:15;;;;;;;19.25;17.45;;;;;;;10.49;100.00;100625.41;5063674;28;20043;-66
2023/08/30 04:18:40;;;;;;;19.10;17.10;;;;;;;10.55;100.00;100616.59;5062417;28;20048;-66
2023/08/30 04:21:08;;;;;;;19.13;17.23;;;;;;;10.54;100.00;100613.13;5050471;28;20102;-66
2023/08/30 04:23:34;;;;;;;21.45;19.25;;;;;;;10.54;100.00;100618.38;5035277;28;20016;-69
2023/08/30 04:26:00;;;;;;;21.15;18.90;;;;;;;10.56;100.00;100629.66;5078405;28;20043;-69
2023/08/30 04:28:26;;;;;;;22.05;19.92;;;;;;;10.56;100.00;100626.19;5061849;28;20028;-70
2023/08/30 04:30:58;;;;;;;22.25;19.95;;;;;;;10.59;100.00;100623.53;5054618;28;20036;-69
2023/08/30 04:33:25;;;;;;;22.65;20.25;;;;;;;10.64;100.00;100618.22;5072795;28;20028;-70
2023/08/30 04:35:51;;;;;;;22.15;19.90;;;;;;;10.71;100.00;100609.34;5063237;28;20058;-69
2023/08/30 04:38:17;;;;;;;23.00;20.80;;;;;;;10.73;100.00;100615.44;5037464;28;20036;-69
2023/08/30 04:40:42;;;;;;;23.63;21.08;;;;;;;10.71;100.00;100617.22;5062699;28;20038;-69
2023/08/30 04:43:08;;;;;;;23.23;21.02;;;;;;;10.77;100.00;100613.63;5052414;28;20085;-69
2023/08/30 04:45:35;;;;;;;24.17;21.80;;;;;;;10.77;100.00;100608.41;5054254;28;20445;-69
2023/08/30 04:48:00;;;;;;;23.85;21.45;;;;;;;10.83;100.00;100616.16;5065507;28;20039;-69
2023/08/30 04:50:25;;;;;;;25.15;22.23;;;;;;;10.84;100.00;100616.13;5055071;28;20028;-69
2023/08/30 04:52:51;;;;;;;25.95;22.63;;;;;;;10.85;100.00;100612.63;5038222;28;20028;-69
2023/08/30 04:55:16;;;;;;;25.30;22.65;;;;;;;10.88;100.00;100609.09;5053856;28;20032;-70
2023/08/30 04:57:44;;;;;;;25.35;22.67;;;;;;;10.91;100.00;100602.03;5062446;28;20365;-69
2023/08/30 05:00:11;;;;;;;25.17;22.75;;;;;;;10.93;100.00;100599.38;5062899;28;20123;-69
2023/08/30 05:02:37;;;;;;;24.00;21.60;;;;;;;11.01;100.00;100600.09;5049024;28;20040;-69
2023/08/30 05:05:02;;;;;;;24.27;21.77;;;;;;;11.05;100.00;100593.94;5036526;28;20074;-69
2023/08/30 05:07:30;;;;;;;23.60;21.40;;;;;;;11.08;100.00;100593.88;5048183;28;20424;-69
2023/08/30 05:09:56;;;;;;;23.58;21.20;;;;;;;11.14;100.00;100584.16;5062105;28;20303;-70
2023/08/30 05:12:22;;;;;;;24.17;21.75;;;;;;;11.13;100.00;100585.91;5051804;28;20043;-69
2023/08/30 05:14:47;;;;;;;23.50;21.10;;;;;;;11.20;100.00;100584.91;5061279;28;20043;-70
2023/08/30 05:17:13;;;;;;;23.38;21.10;;;;;;;11.25;100.00;100587.47;5054660;28;20059;-69
2023/08/30 05:19:38;;;;;;;22.13;20.13;;;;;;;11.23;100.00;100573.50;5049601;28;20185;-69
2023/08/30 05:22:04;;;;;;;24.10;19.88;;;;;;;11.30;100.00;100575.09;5036727;28;20412;-69
2023/08/30 05:24:29;;;;;;;21.08;19.05;;;;;;;11.33;100.00;100582.06;5052086;28;20118;-68
2023/08/30 05:26:55;;;;;;;22.17;20.08;;;;;;;11.34;100.00;100571.53;5064922;28;20052;-69
2023/08/30 05:29:20;;;;;;;22.13;19.70;;;;;;;11.38;100.00;100570.59;5063685;28;20032;-69
2023/08/30 05:31:46;;;;;;;22.55;20.25;;;;;;;11.41;100.00;100578.41;5052400;28;20085;-69
2023/08/30 05:34:11;;;;;;;21.02;18.92;;;;;;;11.47;100.00;100571.31;5050603;28;20069;-69
2023/08/30 05:36:37;;;;;;;21.77;19.48;;;;;;;11.54;100.00;100570.28;5052649;28;20038;-69
2023/08/30 05:39:03;;;;;;;20.20;17.88;;;;;;;11.61;100.00;100570.13;5064477;28;20213;-69
2023/08/30 05:41:29;;;;;;;20.50;18.33;;;;;;;11.67;100.00;100556.00;5062707;28;20036;-68
2023/08/30 05:43:54;;;;;;;19.23;17.33;;;;;;;11.72;100.00;100564.66;5052173;28;20383;-69
2023/08/30 05:46:23;;;;;;;19.48;17.55;;;;;;;11.75;100.00;100554.09;5037938;28;20143;-70
2023/08/30 05:48:49;;;;;;;19.05;17.13;;;;;;;11.82;100.00;100559.22;5048501;28;20448;-69
2023/08/30 05:51:14;;;;;;;18.92;17.10;;;;;;;11.84;100.00;100549.53;5062515;28;20119;-69
2023/08/30 05:53:40;;;;;;;18.23;16.50;;;;;;;11.89;100.00;100550.31;5064429;28;20139;-69
2023/08/30 05:56:05;;;;;;;19.65;17.65;;;;;;;11.93;100.00;100559.84;5051071;28;20913;-69
2023/08/30 05:58:31;;;;;;;18.77;16.88;;;;;;;11.98;100.00;100568.50;5035483;28;20410;-69
2023/08/30 06:00:57;;;;;;;20.48;18.05;;;;;;;11.98;100.00;100557.16;5064295;28;20032;-69
2023/08/30 06:03:22;;;;;;;19.50;16.75;;;;;;;11.99;100.00;100558.88;5064401;28;20454;-69
2023/08/30 06:05:48;;;;;;;19.77;17.92;;;;;;;12.01;100.00;100562.31;5036777;28;20058;-69
2023/08/30 06:08:14;;;;;;;19.20;17.20;;;;;;;12.07;100.00;100567.47;5053233;28;20031;-69
2023/08/30 06:10:40;;;;;;;18.20;16.50;;;;;;;12.09;100.00;100558.63;5061990;28;20031;-69
2023/08/30 06:13:05;;;;;;;17.90;16.00;;;;;;;12.12;100.00;100558.59;5063355;28;20406;-70
2023/08/30 06:15:31;;;;;;;19.02;16.67;;;;;;;12.18;100.00;100554.06;5052965;28;20149;-69
2023/08/30 06:17:58;;;;;;;18.67;16.90;;;;;;;12.22;100.00;100547.84;5053345;28;20039;-69
2023/08/30 06:20:23;;;;;;;17.05;15.35;;;;;;;12.26;100.00;100542.47;5063216;28;20044;-69
2023/08/30 06:22:49;;;;;;;17.80;16.13;;;;;;;12.30;100.00;100541.50;5062296;28;20024;-69
2023/08/30 06:25:14;;;;;;;18.08;16.20;;;;;;;12.34;100.00;100544.06;5036202;28;20047;-69
2023/08/30 06:27:55;;;;;;;17.85;15.98;;;;;;;12.37;100.00;100539.63;5036278;28;20051;-69
2023/08/30 06:30:20;;;;;;;18.25;15.98;;;;;;;12.41;100.00;100540.38;5062937;28;20032;-69
2023/08/30 06:32:46;;;;;;;17.77;16.08;;;;;;;12.43;100.00;100536.81;5069251;28;20445;-69
2023/08/30 06:35:11;;;;;;;17.55;15.73;;;;;;;12.48;100.00;100536.72;5035775;28;20041;-69
2023/08/30 06:37:36;;;;;;;16.63;15.13;;;;;;;12.53;100.00;100536.59;5063434;28;20023;-69
2023/08/30 06:40:03;;;;;;;19.27;17.48;;;;;;;12.54;100.00;100540.94;5037481;28;20586;-69
2023/08/30 06:42:29;;;;;;;18.60;16.88;;;;;;;12.55;100.00;100538.28;5061521;28;20032;-69
2023/08/30 06:44:54;;;;;;;17.60;15.80;;;;;;;12.61;100.00;100534.66;5051356;28;20039;-69
2023/08/30 06:47:20;;;;;;;18.13;16.23;;;;;;;12.65;100.00;100539.78;5036345;28;20046;-69
2023/08/30 06:49:46;;;;;;;17.02;15.45;;;;;;;12.69;100.00;100543.22;5037102;28;20028;-69
2023/08/30 06:52:11;;;;;;;17.85;16.05;;;;;;;12.74;100.00;100548.34;5060408;28;20024;-69
2023/08/30 06:54:37;;;;;;;17.95;16.25;;;;;;;12.74;100.00;100548.34;5079477;28;20297;-70
2023/08/30 06:57:02;;;;;;;18.33;16.60;;;;;;;12.83;100.00;100558.63;5064135;28;20447;-69
2023/08/30 06:59:28;;;;;;;19.33;17.40;;;;;;;12.82;100.00;100562.16;5048124;28;20074;-68
2023/08/30 07:01:54;;;;;;;18.73;16.92;;;;;;;12.83;100.00;100551.59;5068871;28;20039;-68
2023/08/30 07:04:19;;;;;;;18.30;16.30;;;;;;;12.78;100.00;100561.38;5047789;28;20024;-69
2023/08/30 07:06:46;;;;;;;17.63;15.82;;;;;;;12.71;100.00;100556.31;5062832;28;20032;-69
2023/08/30 07:09:11;;;;;;;17.60;15.93;;;;;;;12.74;100.00;100557.13;5081337;28;20148;-69
2023/08/30 07:11:37;;;;;;;18.98;16.98;;;;;;;12.71;100.00;100556.31;5035780;28;20103;-69
2023/08/30 07:14:03;;;;;;;19.08;17.13;;;;;;;12.73;100.00;100555.38;5060280;28;20051;-69
2023/08/30 07:16:29;;;;;;;19.35;17.45;;;;;;;12.70;100.00;100554.56;5069128;28;20070;-69
2023/08/30 07:18:54;;;;;;;18.20;16.30;;;;;;;12.66;100.00;100551.19;5034932;28;20101;-68
2023/08/30 07:21:20;;;;;;;18.90;16.95;;;;;;;12.65;100.00;100549.44;5050313;28;20037;-68
2023/08/30 07:23:45;;;;;;;19.77;17.77;;;;;;;12.58;100.00;100526.84;5064448;28;20056;-68
2023/08/30 07:26:11;;;;;;;18.27;16.52;;;;;;;12.52;100.00;100524.38;5052792;28;20106;-68
2023/08/30 07:28:36;;;;;;;18.92;16.85;;;;;;;12.44;100.00;100520.16;5034775;28;20054;-68
2023/08/30 07:31:03;;;;;;;18.83;16.92;;;;;;;12.40;100.00;100513.25;5051967;28;20402;-68
2023/08/30 07:33:28;;;;;;;19.75;17.85;;;;;;;12.34;100.00;100521.31;5052293;28;20032;-68
2023/08/30 07:35:54;;;;;;;20.13;17.42;;;;;;;12.31;100.00;100513.47;5064661;28;20046;-70
2023/08/30 07:38:19;;;;;;;18.10;16.23;;;;;;;12.30;100.00;100511.75;5050958;28;20030;-68
2023/08/30 07:40:45;;;;;;;19.48;17.50;;;;;;;12.24;100.00;100502.25;5050671;28;20067;-69
2023/08/30 07:43:10;;;;;;;19.48;17.58;;;;;;;12.22;100.00;100504.03;5065231;28;20060;-68
2023/08/30 07:45:36;;;;;;;19.70;17.33;;;;;;;12.25;100.00;100503.13;5048857;28;20505;-68
2023/08/30 07:48:01;;;;;;;19.00;17.13;;;;;;;12.20;100.00;100511.13;5051073;28;20084;-69
2023/08/30 07:50:26;;;;;;;20.13;18.02;;;;;;;12.18;100.00;100505.00;5028935;28;20055;-69
2023/08/30 07:52:52;;;;;;;18.55;16.65;;;;;;;12.22;100.00;100490.06;5050700;28;20036;-68
2023/08/30 07:55:17;;;;;;;18.83;16.92;;;;;;;12.21;100.00;100502.34;5050025;28;20090;-68
2023/08/30 07:57:43;;;;;;;19.95;16.15;;;;;;;12.21;100.00;100486.56;5063105;28;20074;-68
2023/08/30 08:00:09;;;;;;;17.73;15.82;;;;;;;12.24;100.00;100485.63;5058158;28;20434;-68
2023/08/30 08:02:34;;;;;;;18.00;16.10;;;;;;;12.20;100.00;100489.25;5051615;28;20085;-68
2023/08/30 08:05:00;;;;;;;17.65;15.73;;;;;;;12.19;100.00;100484.88;5052361;28;20028;-70
2023/08/30 08:07:25;;;;;;;16.55;14.85;;;;;;;12.24;100.00;100485.63;5066151;28;20047;-69
2023/08/30 08:09:50;;;;;;;17.98;16.08;;;;;;;12.22;100.00;100485.66;5040041;28;20026;-70
2023/08/30 08:12:16;;;;;;;17.10;15.38;;;;;;;12.20;100.00;100482.22;5039395;28;20484;-70
2023/08/30 08:14:42;;;;;;;16.73;15.02;;;;;;;12.22;100.00;100487.44;5052887;28;20491;-71
2023/08/30 08:17:08;;;;;;;14.73;13.18;;;;;;;12.28;100.00;100489.91;5083802;28;21676;-69
2023/08/30 08:19:35;;;;;;;16.30;13.40;;;;;;;12.28;100.00;100477.66;5039143;28;20102;-68
2023/08/30 08:22:00;;;;;;;12.93;11.63;;;;;;;12.27;100.00;100488.19;5066633;28;20039;-68
2023/08/30 08:24:25;;;;;;;12.95;11.45;;;;;;;12.26;100.00;100482.06;5066521;28;20077;-68
2023/08/30 08:26:51;;;;;;;12.38;11.07;;;;;;;12.26;100.00;100482.06;5068197;28;20444;-68
2023/08/30 08:29:16;;;;;;;11.55;10.13;;;;;;;12.34;100.00;100487.16;5036714;28;20036;-68
2023/08/30 08:31:42;;;;;;;11.00;9.82;;;;;;;12.40;100.00;100476.47;5063701;28;20028;-67
2023/08/30 08:34:12;;;;;;;11.10;9.88;;;;;;;12.41;100.00;100479.94;5047055;28;20036;-68
2023/08/30 08:36:39;;;;;;;11.50;9.60;;;;;;;12.40;100.00;100473.84;5070584;28;20438;-68
2023/08/30 08:39:06;;;;;;;9.98;8.65;;;;;;;12.43;100.00;100473.75;5082907;28;20441;-69
2023/08/30 08:41:39;;;;;;;10.20;8.95;;;;;;;12.47;100.00;100478.03;5048908;28;20509;-68
2023/08/30 08:44:06;;;;;;;11.27;10.07;;;;;;;12.51;100.00;100477.97;5081983;28;20078;-69
2023/08/30 08:46:34;;;;;;;10.15;9.15;;;;;;;12.52;100.00;100474.44;5084653;28;20115;-70
2023/08/30 08:49:06;;;;;;;10.95;9.05;;;;;;;12.53;100.00;100478.75;5047777;28;20087;-70
2023/08/30 08:51:34;;;;;;;9.90;8.63;;;;;;;12.58;100.00;100475.13;5065004;28;20459;-69
2023/08/30 08:54:03;;;;;;;9.50;8.52;;;;;;;12.60;100.00;100478.59;5049667;28;20468;-69
2023/08/30 08:56:30;;;;;;;10.50;8.93;;;;;;;12.63;100.00;100478.50;5085517;28;20103;-69
2023/08/30 08:58:56;;;;;;;10.07;9.07;;;;;;;12.62;100.00;100468.03;5066238;28;20039;-69
2023/08/30 09:01:22;;;;;;;10.32;9.25;;;;;;;12.65;100.00;100475.84;5079115;28;20024;-69
2023/08/30 09:03:47;;;;;;;10.35;9.27;;;;;;;12.67;100.00;100467.91;5060977;28;20495;-69
2023/08/30 09:06:15;;;;;;;12.27;9.70;;;;;;;12.71;100.00;100473.03;5053003;28;20032;-70
2023/08/30 09:08:40;;;;;;;9.73;8.77;;;;;;;12.74;100.00;100465.09;5046378;28;20055;-71
2023/08/30 09:11:06;;;;;;;9.35;8.38;;;;;;;12.78;100.00;100460.59;5041882;28;20500;-70
2023/08/30 09:13:31;;;;;;;9.60;8.60;;;;;;;12.80;100.00;100466.66;5045093;28;20039;-70
2023/08/30 09:15:59;;;;;;;10.90;9.43;;;;;;;12.80;100.00;100474.56;5045064;28;20035;-70
2023/08/30 09:18:27;;;;;;;8.82;7.07;;;;;;;12.93;100.00;100464.56;5059335;28;20130;-70
2023/08/30 09:21:13;;;;;;;8.02;6.90;;;;;;;13.01;100.00;100473.13;5044459;28;20032;-69
2023/08/30 09:23:38;;;;;;;8.05;7.18;;;;;;;13.09;100.00;100472.91;5060158;28;20122;-71
2023/08/30 09:26:06;;;;;;;8.90;8.00;;;;;;;13.16;100.00;100477.94;5085560;28;20072;-71
2023/08/30 09:28:41;;;;;;;8.82;7.63;;;;;;;13.33;100.00;100479.22;5066407;28;20051;-71
2023/08/30 09:31:07;;;;;;;10.18;7.15;;;;;;;13.43;100.00;100470.22;5076606;28;20518;-71
2023/08/30 09:33:33;;;;;;;7.95;7.15;;;;;;;13.70;100.00;100478.16;5046681;28;20047;-73
2023/08/30 09:35:59;;;;;;;8.32;7.40;;;;;;;13.95;100.00;100475.66;5060549;28;20435;-73
2023/08/30 09:38:25;;;;;;;7.60;6.68;;;;;;;14.07;100.00;100481.44;5059929;28;20036;-70
2023/08/30 09:40:52;;;;;;;9.07;7.13;;;;;;;14.11;100.00;100478.66;5059439;28;20074;-70
2023/08/30 09:43:24;;;;;;;7.22;6.38;;;;;;;14.28;100.00;100472.84;5040403;28;20424;-74
2023/08/30 09:45:52;;;;;;;7.70;7.00;;;;;;;14.24;100.00;100475.59;5057065;28;20031;-73
2023/08/30 09:48:29;;;;;;;7.43;6.72;;;;;;;14.37;100.00;100469.03;5049523;28;20024;-74
2023/08/30 09:50:57;;;;;;;7.20;6.50;;;;;;;14.26;100.00;100469.38;5058101;28;20039;-73
2023/08/30 09:53:29;;;;;;;8.75;6.22;;;;;;;14.27;100.00;100475.53;5074623;28;20036;-71
2023/08/30 09:55:56;;;;;;;7.35;5.93;;;;;;;14.26;100.00;100471.16;5062068;28;20036;-71
2023/08/30 09:58:22;;;;;;;6.82;6.13;;;;;;;14.34;100.00;100463.88;5044866;28;20036;-71
2023/08/30 10:00:48;;;;;;;6.43;5.80;;;;;;;14.32;100.00;100465.66;5057258;28;20100;-70
2023/08/30 10:03:16;;;;;;;7.78;6.28;;;;;;;14.34;100.00;100463.88;5060405;28;20055;-70
2023/08/30 10:05:43;;;;;;;7.10;6.28;;;;;;;14.58;100.00;100467.41;5075489;28;20499;-70
2023/08/30 10:08:09;;;;;;;7.95;6.53;;;;;;;14.92;100.00;100465.44;5043524;28;20516;-70
2023/08/30 10:10:35;;;;;;;7.43;6.65;;;;;;;15.05;100.00;100466.69;5060767;28;20997;-70
2023/08/30 10:13:02;;;;;;;6.63;6.03;;;;;;;15.25;100.00;100464.19;5397691;22;20073;-69
2023/08/30 10:15:33;;;;;;;7.38;6.68;;;;;;;15.58;100.00;100460.31;4988897;28;20036;-70
2023/08/30 10:18:00;;;;;;;7.18;6.18;;;;;;;16.10;100.00;100452.13;5019697;28;20354;-70
2023/08/30 10:20:27;;;;;;;7.20;6.50;;;;;;;16.25;100.00;100455.94;5003420;28;20468;-70
2023/08/30 10:22:54;;;;;;;6.85;6.25;;;;;;;16.44;100.00;100451.59;5005560;28;20025;-70
2023/08/30 10:25:22;;;;;;;7.15;6.45;;;;;;;16.59;100.00;100457.16;5011684;28;20029;-70
2023/08/30 10:27:49;;;;;;;7.07;6.13;;;;;;;16.56;100.00;100452.84;5020789;28;20029;-70
2023/08/30 10:30:17;;;;;;;7.20;6.60;;;;;;;16.83;100.00;100439.34;5025301;28;20219;-70
2023/08/30 10:32:45;;;;;;;7.97;7.13;;;;;;;17.25;100.00;100448.94;5010678;28;20094;-71
2023/08/30 10:35:15;;;;;;;6.82;6.15;;;;;;;17.26;97.85;100445.38;4987715;28;20473;-70
2023/08/30 10:37:41;;;;;;;;;;;;;;;17.73;100.00;100443.22;5003433;28;21206;-70
2023/08/30 10:40:09;;;;;;;7.78;7.07;;;;;;;17.73;96.09;100443.22;5019151;28;20403;-70
2023/08/30 10:42:35;;;;;;;7.43;6.72;;;;;;;17.65;93.66;100444.44;5037363;28;20132;-70
2023/08/30 10:45:05;;;;;;;7.45;6.75;;;;;;;17.72;92.80;100445.00;5017938;28;20493;-69
2023/08/30 10:47:35;;;;;;;7.95;7.30;;;;;;;17.89;91.72;100438.91;5019495;28;20037;-70
2023/08/30 10:50:05;;;;;;;7.63;6.93;;;;;;;17.75;89.53;100441.38;5019740;28;20404;-70
2023/08/30 10:52:31;;;;;;;8.38;7.57;;;;;;;17.95;92.52;100438.63;5021379;28;20545;-70
2023/08/30 10:55:15;;;;;;;8.05;6.75;;;;;;;18.03;91.39;100434.75;4998107;28;20045;-70
2023/08/30 10:57:45;;;;;;;8.15;7.45;;;;;;;18.09;91.79;100435.31;5029261;28;20037;-69
2023/08/30 11:00:20;;;;;;;8.02;7.20;;;;;;;17.94;89.57;100426.31;5047373;28;20070;-69
2023/08/30 11:02:48;;;;;;;8.38;6.85;;;;;;;17.65;89.56;100435.63;5029154;28;20032;-70
2023/08/30 11:07:50;;;;;;;7.78;7.05;;;;;;;17.55;91.45;100431.72;5439066;23;20523;-67